Maragheh, Iran
Current Conditions -  °F | °C
As of 4:00 PM on Thursday 29 Jan 2015 (Local Time) from OITM Reporting Station
Broken Clouds Broken Clouds  
Wind Chill: 50°   Ceiling: 17000
Heat Index: 50°   Visibility: 6mi
Dew Point: 27°   Wind: 12mph
Humidity: 40%   Direction: 260°W
Pressure: 29.91"   Gusts: NA
Location:  37.38°N, 46.27°E
Report Text: OITM 291200Z 26010KT 9999 FEW035TCU FEW036 BKN170 10/M03 Q1013
Loading
Personal Weather Stations






























Interactive Weather Map New forecast layout! Learn more

10-Day Weather Forecast

Advertisements
Track Severe Weather on mobile